sensor_id;sensor_type;location;lat;lon;timestamp;P1;durP1;ratioP1;P2;durP2;ratioP2
22660;SDS011;11497;52.222;21.246;2022-09-06T00:01:12;4.32;;;3.05;;
22660;SDS011;11497;52.222;21.246;2022-09-06T00:03:41;6.65;;;3.10;;
22660;SDS011;11497;52.222;21.246;2022-09-06T00:06:15;5.20;;;2.80;;
22660;SDS011;11497;52.222;21.246;2022-09-06T00:08:45;4.82;;;2.80;;
22660;SDS011;11497;52.222;21.246;2022-09-06T00:11:15;7.97;;;2.65;;
22660;SDS011;11497;52.222;21.246;2022-09-06T00:13:43;6.65;;;2.83;;
22660;SDS011;11497;52.222;21.246;2022-09-06T00:16:13;7.20;;;3.05;;
22660;SDS011;11497;52.222;21.246;2022-09-06T00:18:45;8.05;;;3.10;;
22660;SDS011;11497;52.222;21.246;2022-09-06T00:21:14;7.82;;;2.60;;
22660;SDS011;11497;52.222;21.246;2022-09-06T00:23:53;4.40;;;2.90;;
22660;SDS011;11497;52.222;21.246;2022-09-06T00:26:21;8.90;;;3.50;;
22660;SDS011;11497;52.222;21.246;2022-09-06T00:28:49;7.43;;;3.10;;
22660;SDS011;11497;52.222;21.246;2022-09-06T00:31:19;5.70;;;2.78;;
22660;SDS011;11497;52.222;21.246;2022-09-06T00:33:50;5.85;;;2.67;;
22660;SDS011;11497;52.222;21.246;2022-09-06T00:36:19;6.18;;;2.60;;
22660;SDS011;11497;52.222;21.246;2022-09-06T00:38:47;6.35;;;2.92;;
22660;SDS011;11497;52.222;21.246;2022-09-06T00:41:15;4.20;;;2.78;;
22660;SDS011;11497;52.222;21.246;2022-09-06T00:43:43;7.07;;;2.55;;
22660;SDS011;11497;52.222;21.246;2022-09-06T00:46:16;3.97;;;2.80;;
22660;SDS011;11497;52.222;21.246;2022-09-06T00:48:55;10.00;;;3.30;;
22660;SDS011;11497;52.222;21.246;2022-09-06T00:51:30;4.20;;;3.00;;
22660;SDS011;11497;52.222;21.246;2022-09-06T00:54:04;5.22;;;2.50;;
22660;SDS011;11497;52.222;21.246;2022-09-06T00:56:37;5.68;;;2.92;;
22660;SDS011;11497;52.222;21.246;2022-09-06T00:59:07;7.60;;;2.70;;
22660;SDS011;11497;52.222;21.246;2022-09-06T01:01:35;7.18;;;3.03;;
22660;SDS011;11497;52.222;21.246;2022-09-06T01:04:03;4.85;;;2.35;;
22660;SDS011;11497;52.222;21.246;2022-09-06T01:06:37;5.45;;;3.00;;
22660;SDS011;11497;52.222;21.246;2022-09-06T01:12:24;4.47;;;2.50;;
22660;SDS011;11497;52.222;21.246;2022-09-06T01:29:10;3.72;;;2.53;;
22660;SDS011;11497;52.222;21.246;2022-09-06T01:34:43;4.75;;;2.55;;
22660;SDS011;11497;52.222;21.246;2022-09-06T01:37:17;7.45;;;3.10;;
22660;SDS011;11497;52.222;21.246;2022-09-06T01:39:46;4.50;;;2.92;;
22660;SDS011;11497;52.222;21.246;2022-09-06T01:42:18;6.03;;;3.10;;
22660;SDS011;11497;52.222;21.246;2022-09-06T01:45:04;5.05;;;2.80;;
22660;SDS011;11497;52.222;21.246;2022-09-06T01:47:46;3.33;;;2.53;;
22660;SDS011;11497;52.222;21.246;2022-09-06T01:53:10;5.70;;;2.70;;
22660;SDS011;11497;52.222;21.246;2022-09-06T01:55:57;3.97;;;2.70;;
22660;SDS011;11497;52.222;21.246;2022-09-06T02:04:49;5.07;;;2.70;;
22660;SDS011;11497;52.222;21.246;2022-09-06T02:10:23;6.18;;;2.53;;
22660;SDS011;11497;52.222;21.246;2022-09-06T02:12:53;4.53;;;2.80;;
22660;SDS011;11497;52.222;21.246;2022-09-06T02:15:33;13.98;;;3.25;;
22660;SDS011;11497;52.222;21.246;2022-09-06T02:18:12;6.68;;;2.83;;
22660;SDS011;11497;52.222;21.246;2022-09-06T02:20:46;10.85;;;2.70;;
22660;SDS011;11497;52.222;21.246;2022-09-06T02:23:18;13.15;;;3.03;;
22660;SDS011;11497;52.222;21.246;2022-09-06T02:25:50;7.50;;;3.03;;
22660;SDS011;11497;52.222;21.246;2022-09-06T02:28:26;6.47;;;3.00;;
22660;SDS011;11497;52.222;21.246;2022-09-06T02:30:56;9.38;;;2.78;;
22660;SDS011;11497;52.222;21.246;2022-09-06T02:33:29;6.57;;;3.00;;
22660;SDS011;11497;52.222;21.246;2022-09-06T02:36:01;12.50;;;3.25;;
22660;SDS011;11497;52.222;21.246;2022-09-06T02:38:33;6.95;;;3.00;;
22660;SDS011;11497;52.222;21.246;2022-09-06T02:41:03;5.53;;;2.95;;
22660;SDS011;11497;52.222;21.246;2022-09-06T02:43:32;14.65;;;4.10;;
22660;SDS011;11497;52.222;21.246;2022-09-06T02:46:00;6.65;;;2.80;;
22660;SDS011;11497;52.222;21.246;2022-09-06T02:48:28;8.52;;;3.20;;
22660;SDS011;11497;52.222;21.246;2022-09-06T02:50:56;3.97;;;2.80;;
22660;SDS011;11497;52.222;21.246;2022-09-06T02:53:27;5.10;;;2.83;;
22660;SDS011;11497;52.222;21.246;2022-09-06T02:55:55;6.57;;;2.75;;
22660;SDS011;11497;52.222;21.246;2022-09-06T02:58:23;5.75;;;2.88;;
22660;SDS011;11497;52.222;21.246;2022-09-06T03:00:51;4.30;;;2.95;;
22660;SDS011;11497;52.222;21.246;2022-09-06T03:03:20;7.30;;;2.80;;
22660;SDS011;11497;52.222;21.246;2022-09-06T03:05:48;7.18;;;2.92;;
22660;SDS011;11497;52.222;21.246;2022-09-06T03:08:18;7.18;;;3.08;;
22660;SDS011;11497;52.222;21.246;2022-09-06T03:10:49;8.75;;;3.63;;
22660;SDS011;11497;52.222;21.246;2022-09-06T03:13:18;5.65;;;3.28;;
22660;SDS011;11497;52.222;21.246;2022-09-06T03:15:56;7.57;;;3.20;;
22660;SDS011;11497;52.222;21.246;2022-09-06T03:18:26;9.70;;;2.90;;
22660;SDS011;11497;52.222;21.246;2022-09-06T03:20:56;3.95;;;3.08;;
22660;SDS011;11497;52.222;21.246;2022-09-06T03:23:25;8.70;;;3.42;;
22660;SDS011;11497;52.222;21.246;2022-09-06T03:25:54;4.55;;;2.83;;
22660;SDS011;11497;52.222;21.246;2022-09-06T03:28:23;5.50;;;2.83;;
22660;SDS011;11497;52.222;21.246;2022-09-06T03:30:51;4.85;;;3.05;;
22660;SDS011;11497;52.222;21.246;2022-09-06T03:33:19;5.28;;;2.67;;
22660;SDS011;11497;52.222;21.246;2022-09-06T03:35:51;6.25;;;2.97;;
22660;SDS011;11497;52.222;21.246;2022-09-06T03:38:23;5.10;;;3.13;;
22660;SDS011;11497;52.222;21.246;2022-09-06T03:40:52;8.93;;;3.05;;
22660;SDS011;11497;52.222;21.246;2022-09-06T03:43:21;9.38;;;2.90;;
22660;SDS011;11497;52.222;21.246;2022-09-06T03:45:51;8.48;;;3.20;;
22660;SDS011;11497;52.222;21.246;2022-09-06T03:48:22;7.78;;;3.10;;
22660;SDS011;11497;52.222;21.246;2022-09-06T03:50:52;8.90;;;3.00;;
22660;SDS011;11497;52.222;21.246;2022-09-06T03:53:22;7.30;;;3.20;;
22660;SDS011;11497;52.222;21.246;2022-09-06T03:55:52;10.35;;;3.00;;
22660;SDS011;11497;52.222;21.246;2022-09-06T03:58:22;7.55;;;3.33;;
22660;SDS011;11497;52.222;21.246;2022-09-06T04:01:00;9.15;;;2.85;;
22660;SDS011;11497;52.222;21.246;2022-09-06T04:03:33;9.23;;;3.22;;
22660;SDS011;11497;52.222;21.246;2022-09-06T04:06:02;7.88;;;3.35;;
22660;SDS011;11497;52.222;21.246;2022-09-06T04:08:31;13.88;;;3.40;;
22660;SDS011;11497;52.222;21.246;2022-09-06T04:11:01;9.05;;;3.47;;
22660;SDS011;11497;52.222;21.246;2022-09-06T04:13:30;12.95;;;3.38;;
22660;SDS011;11497;52.222;21.246;2022-09-06T04:15:59;15.77;;;3.80;;
22660;SDS011;11497;52.222;21.246;2022-09-06T04:18:27;13.07;;;3.30;;
22660;SDS011;11497;52.222;21.246;2022-09-06T04:20:56;13.60;;;3.40;;
22660;SDS011;11497;52.222;21.246;2022-09-06T04:23:24;13.52;;;3.78;;
22660;SDS011;11497;52.222;21.246;2022-09-06T04:25:54;14.32;;;3.92;;
22660;SDS011;11497;52.222;21.246;2022-09-06T04:28:24;22.48;;;4.22;;
22660;SDS011;11497;52.222;21.246;2022-09-06T04:30:53;11.85;;;3.97;;
22660;SDS011;11497;52.222;21.246;2022-09-06T04:33:31;8.65;;;3.40;;
22660;SDS011;11497;52.222;21.246;2022-09-06T04:36:01;15.43;;;3.78;;
22660;SDS011;11497;52.222;21.246;2022-09-06T04:38:38;19.42;;;4.28;;
22660;SDS011;11497;52.222;21.246;2022-09-06T04:41:08;16.70;;;4.30;;
22660;SDS011;11497;52.222;21.246;2022-09-06T04:43:38;5.57;;;3.53;;
22660;SDS011;11497;52.222;21.246;2022-09-06T04:46:18;8.55;;;3.88;;
22660;SDS011;11497;52.222;21.246;2022-09-06T04:48:53;9.88;;;3.80;;
22660;SDS011;11497;52.222;21.246;2022-09-06T04:51:22;8.10;;;3.72;;
22660;SDS011;11497;52.222;21.246;2022-09-06T04:53:51;9.88;;;3.85;;
22660;SDS011;11497;52.222;21.246;2022-09-06T04:56:20;12.90;;;4.18;;
22660;SDS011;11497;52.222;21.246;2022-09-06T04:58:50;12.85;;;3.97;;
22660;SDS011;11497;52.222;21.246;2022-09-06T05:01:19;8.40;;;3.60;;
22660;SDS011;11497;52.222;21.246;2022-09-06T05:03:48;14.32;;;4.15;;
22660;SDS011;11497;52.222;21.246;2022-09-06T05:06:22;14.13;;;3.90;;
22660;SDS011;11497;52.222;21.246;2022-09-06T05:08:51;16.42;;;4.15;;
22660;SDS011;11497;52.222;21.246;2022-09-06T05:11:18;23.00;;;4.00;;
22660;SDS011;11497;52.222;21.246;2022-09-06T05:13:47;14.75;;;4.18;;
22660;SDS011;11497;52.222;21.246;2022-09-06T05:16:16;12.45;;;3.70;;
22660;SDS011;11497;52.222;21.246;2022-09-06T05:18:44;12.05;;;3.80;;
22660;SDS011;11497;52.222;21.246;2022-09-06T05:21:12;11.23;;;3.30;;
22660;SDS011;11497;52.222;21.246;2022-09-06T05:23:41;20.17;;;4.00;;
22660;SDS011;11497;52.222;21.246;2022-09-06T05:26:09;13.98;;;3.03;;
22660;SDS011;11497;52.222;21.246;2022-09-06T05:28:37;12.73;;;3.13;;
22660;SDS011;11497;52.222;21.246;2022-09-06T05:31:22;12.77;;;3.25;;
22660;SDS011;11497;52.222;21.246;2022-09-06T05:33:54;5.40;;;3.00;;
22660;SDS011;11497;52.222;21.246;2022-09-06T05:36:24;6.32;;;2.75;;
22660;SDS011;11497;52.222;21.246;2022-09-06T05:38:53;3.92;;;2.65;;
22660;SDS011;11497;52.222;21.246;2022-09-06T05:41:22;6.15;;;2.40;;
22660;SDS011;11497;52.222;21.246;2022-09-06T05:43:50;10.82;;;2.33;;
22660;SDS011;11497;52.222;21.246;2022-09-06T05:46:18;11.50;;;2.72;;
22660;SDS011;11497;52.222;21.246;2022-09-06T05:48:53;9.57;;;2.35;;
22660;SDS011;11497;52.222;21.246;2022-09-06T05:51:22;11.02;;;2.42;;
22660;SDS011;11497;52.222;21.246;2022-09-06T05:53:50;4.25;;;2.20;;
22660;SDS011;11497;52.222;21.246;2022-09-06T05:56:18;5.68;;;2.15;;
22660;SDS011;11497;52.222;21.246;2022-09-06T05:58:46;6.10;;;2.10;;
22660;SDS011;11497;52.222;21.246;2022-09-06T06:03:49;12.25;;;2.42;;
22660;SDS011;11497;52.222;21.246;2022-09-06T06:06:17;9.07;;;2.00;;
22660;SDS011;11497;52.222;21.246;2022-09-06T06:08:46;10.45;;;2.33;;
22660;SDS011;11497;52.222;21.246;2022-09-06T06:11:14;12.63;;;2.60;;
22660;SDS011;11497;52.222;21.246;2022-09-06T06:13:43;4.30;;;2.30;;
22660;SDS011;11497;52.222;21.246;2022-09-06T06:16:12;6.95;;;1.70;;
22660;SDS011;11497;52.222;21.246;2022-09-06T06:18:42;4.72;;;1.80;;
22660;SDS011;11497;52.222;21.246;2022-09-06T06:21:19;8.45;;;2.15;;
22660;SDS011;11497;52.222;21.246;2022-09-06T06:23:50;6.45;;;2.60;;
22660;SDS011;11497;52.222;21.246;2022-09-06T06:26:21;4.93;;;1.77;;
22660;SDS011;11497;52.222;21.246;2022-09-06T06:28:49;3.75;;;1.83;;
22660;SDS011;11497;52.222;21.246;2022-09-06T06:31:18;5.35;;;1.83;;
22660;SDS011;11497;52.222;21.246;2022-09-06T06:33:48;4.65;;;2.00;;
22660;SDS011;11497;52.222;21.246;2022-09-06T06:38:44;8.90;;;1.70;;
22660;SDS011;11497;52.222;21.246;2022-09-06T06:41:14;6.22;;;1.70;;
22660;SDS011;11497;52.222;21.246;2022-09-06T06:43:43;4.40;;;1.70;;
22660;SDS011;11497;52.222;21.246;2022-09-06T06:46:12;6.38;;;1.70;;
22660;SDS011;11497;52.222;21.246;2022-09-06T06:48:43;4.78;;;1.35;;
22660;SDS011;11497;52.222;21.246;2022-09-06T06:51:12;5.10;;;1.52;;
22660;SDS011;11497;52.222;21.246;2022-09-06T06:53:45;6.63;;;1.70;;
22660;SDS011;11497;52.222;21.246;2022-09-06T06:58:46;3.90;;;1.27;;
22660;SDS011;11497;52.222;21.246;2022-09-06T07:01:16;3.28;;;1.25;;
22660;SDS011;11497;52.222;21.246;2022-09-06T07:03:48;5.45;;;1.77;;
22660;SDS011;11497;52.222;21.246;2022-09-06T07:06:17;4.40;;;1.15;;
22660;SDS011;11497;52.222;21.246;2022-09-06T07:08:47;4.13;;;1.30;;
22660;SDS011;11497;52.222;21.246;2022-09-06T07:11:15;9.23;;;1.50;;
22660;SDS011;11497;52.222;21.246;2022-09-06T07:13:49;4.93;;;1.42;;
22660;SDS011;11497;52.222;21.246;2022-09-06T07:16:18;4.72;;;1.33;;
22660;SDS011;11497;52.222;21.246;2022-09-06T07:18:50;5.25;;;1.67;;
22660;SDS011;11497;52.222;21.246;2022-09-06T07:21:21;4.78;;;1.35;;
22660;SDS011;11497;52.222;21.246;2022-09-06T07:24:07;3.08;;;1.00;;
22660;SDS011;11497;52.222;21.246;2022-09-06T07:26:37;6.28;;;1.25;;
22660;SDS011;11497;52.222;21.246;2022-09-06T07:29:06;4.10;;;1.25;;
22660;SDS011;11497;52.222;21.246;2022-09-06T07:31:35;2.67;;;1.00;;
22660;SDS011;11497;52.222;21.246;2022-09-06T07:34:24;5.90;;;1.33;;
22660;SDS011;11497;52.222;21.246;2022-09-06T07:36:53;4.75;;;1.30;;
22660;SDS011;11497;52.222;21.246;2022-09-06T07:39:21;7.25;;;1.50;;
22660;SDS011;11497;52.222;21.246;2022-09-06T07:41:50;3.50;;;1.30;;
22660;SDS011;11497;52.222;21.246;2022-09-06T07:44:17;2.15;;;0.80;;
22660;SDS011;11497;52.222;21.246;2022-09-06T07:46:45;2.30;;;1.00;;
22660;SDS011;11497;52.222;21.246;2022-09-06T07:49:13;2.53;;;1.05;;
22660;SDS011;11497;52.222;21.246;2022-09-06T07:51:41;3.97;;;1.25;;
22660;SDS011;11497;52.222;21.246;2022-09-06T07:54:10;3.47;;;0.98;;
22660;SDS011;11497;52.222;21.246;2022-09-06T07:56:56;6.15;;;1.45;;
22660;SDS011;11497;52.222;21.246;2022-09-06T07:59:24;2.03;;;0.80;;
22660;SDS011;11497;52.222;21.246;2022-09-06T08:01:53;5.07;;;1.10;;
22660;SDS011;11497;52.222;21.246;2022-09-06T08:04:21;2.90;;;0.75;;
22660;SDS011;11497;52.222;21.246;2022-09-06T08:06:50;3.03;;;0.85;;
22660;SDS011;11497;52.222;21.246;2022-09-06T08:09:38;3.50;;;0.80;;
22660;SDS011;11497;52.222;21.246;2022-09-06T08:12:06;4.28;;;0.90;;
22660;SDS011;11497;52.222;21.246;2022-09-06T08:14:34;1.13;;;0.65;;
22660;SDS011;11497;52.222;21.246;2022-09-06T08:17:02;2.50;;;0.80;;
22660;SDS011;11497;52.222;21.246;2022-09-06T08:19:30;1.88;;;0.68;;
22660;SDS011;11497;52.222;21.246;2022-09-06T08:21:59;1.75;;;0.90;;
22660;SDS011;11497;52.222;21.246;2022-09-06T08:24:28;3.42;;;0.90;;
22660;SDS011;11497;52.222;21.246;2022-09-06T08:26:56;2.05;;;0.70;;
22660;SDS011;11497;52.222;21.246;2022-09-06T08:29:23;1.90;;;0.88;;
22660;SDS011;11497;52.222;21.246;2022-09-06T08:31:53;1.88;;;0.80;;
22660;SDS011;11497;52.222;21.246;2022-09-06T08:34:21;6.20;;;0.70;;
22660;SDS011;11497;52.222;21.246;2022-09-06T08:36:48;1.90;;;0.75;;
22660;SDS011;11497;52.222;21.246;2022-09-06T08:39:17;4.50;;;0.80;;
22660;SDS011;11497;52.222;21.246;2022-09-06T08:41:53;1.95;;;0.68;;
22660;SDS011;11497;52.222;21.246;2022-09-06T08:47:21;0.85;;;0.65;;
22660;SDS011;11497;52.222;21.246;2022-09-06T08:49:50;1.00;;;0.57;;
22660;SDS011;11497;52.222;21.246;2022-09-06T08:59:05;2.35;;;0.80;;
22660;SDS011;11497;52.222;21.246;2022-09-06T09:04:11;1.92;;;0.90;;
22660;SDS011;11497;52.222;21.246;2022-09-06T09:06:44;6.55;;;0.80;;
22660;SDS011;11497;52.222;21.246;2022-09-06T09:09:16;3.90;;;0.70;;
22660;SDS011;11497;52.222;21.246;2022-09-06T09:11:45;1.27;;;0.70;;
22660;SDS011;11497;52.222;21.246;2022-09-06T09:16:54;4.63;;;0.70;;
22660;SDS011;11497;52.222;21.246;2022-09-06T09:19:28;1.88;;;0.52;;
22660;SDS011;11497;52.222;21.246;2022-09-06T09:21:59;3.17;;;0.93;;
22660;SDS011;11497;52.222;21.246;2022-09-06T09:24:27;0.57;;;0.50;;
22660;SDS011;11497;52.222;21.246;2022-09-06T09:27:04;1.85;;;0.80;;
22660;SDS011;11497;52.222;21.246;2022-09-06T09:32:45;2.65;;;0.80;;
22660;SDS011;11497;52.222;21.246;2022-09-06T09:35:32;3.22;;;0.65;;
22660;SDS011;11497;52.222;21.246;2022-09-06T09:38:11;1.52;;;0.77;;
22660;SDS011;11497;52.222;21.246;2022-09-06T09:40:50;2.25;;;0.50;;
22660;SDS011;11497;52.222;21.246;2022-09-06T09:46:13;7.70;;;0.90;;
22660;SDS011;11497;52.222;21.246;2022-09-06T09:49:04;2.58;;;0.88;;
22660;SDS011;11497;52.222;21.246;2022-09-06T09:51:38;2.97;;;0.90;;
22660;SDS011;11497;52.222;21.246;2022-09-06T09:54:13;4.22;;;0.90;;
22660;SDS011;11497;52.222;21.246;2022-09-06T09:56:55;1.38;;;0.47;;
22660;SDS011;11497;52.222;21.246;2022-09-06T09:59:25;1.60;;;0.60;;
22660;SDS011;11497;52.222;21.246;2022-09-06T10:01:57;2.22;;;0.73;;
22660;SDS011;11497;52.222;21.246;2022-09-06T10:05:18;4.95;;;0.85;;
22660;SDS011;11497;52.222;21.246;2022-09-06T10:07:20;1.13;;;0.60;;
22660;SDS011;11497;52.222;21.246;2022-09-06T10:10:00;2.15;;;0.70;;
22660;SDS011;11497;52.222;21.246;2022-09-06T10:12:37;0.70;;;0.60;;
22660;SDS011;11497;52.222;21.246;2022-09-06T10:15:07;0.90;;;0.50;;
22660;SDS011;11497;52.222;21.246;2022-09-06T10:17:46;3.88;;;0.60;;
22660;SDS011;11497;52.222;21.246;2022-09-06T10:20:16;3.88;;;0.70;;
22660;SDS011;11497;52.222;21.246;2022-09-06T10:22:54;4.22;;;0.75;;
22660;SDS011;11497;52.222;21.246;2022-09-06T10:33:35;3.05;;;0.82;;
22660;SDS011;11497;52.222;21.246;2022-09-06T10:36:04;1.02;;;0.93;;
22660;SDS011;11497;52.222;21.246;2022-09-06T10:47:16;0.77;;;0.77;;
22660;SDS011;11497;52.222;21.246;2022-09-06T10:49:46;2.03;;;0.73;;
22660;SDS011;11497;52.222;21.246;2022-09-06T10:52:32;0.70;;;0.65;;
22660;SDS011;11497;52.222;21.246;2022-09-06T10:55:03;3.90;;;0.70;;
22660;SDS011;11497;52.222;21.246;2022-09-06T10:57:43;1.25;;;0.70;;
22660;SDS011;11497;52.222;21.246;2022-09-06T11:00:33;1.13;;;0.60;;
22660;SDS011;11497;52.222;21.246;2022-09-06T11:06:21;2.05;;;0.70;;
22660;SDS011;11497;52.222;21.246;2022-09-06T11:09:02;0.70;;;0.60;;
22660;SDS011;11497;52.222;21.246;2022-09-06T11:14:48;4.03;;;0.90;;
22660;SDS011;11497;52.222;21.246;2022-09-06T11:17:20;5.20;;;0.90;;
22660;SDS011;11497;52.222;21.246;2022-09-06T11:28:34;0.68;;;0.65;;
22660;SDS011;11497;52.222;21.246;2022-09-06T11:31:08;0.77;;;0.60;;
22660;SDS011;11497;52.222;21.246;2022-09-06T11:36:46;0.70;;;0.70;;
22660;SDS011;11497;52.222;21.246;2022-09-06T11:39:23;1.95;;;0.57;;
22660;SDS011;11497;52.222;21.246;2022-09-06T11:45:15;2.25;;;0.60;;
22660;SDS011;11497;52.222;21.246;2022-09-06T11:53:27;2.08;;;0.75;;
22660;SDS011;11497;52.222;21.246;2022-09-06T11:56:27;3.10;;;0.80;;
22660;SDS011;11497;52.222;21.246;2022-09-06T11:59:47;1.20;;;0.80;;
22660;SDS011;11497;52.222;21.246;2022-09-06T12:07:35;2.30;;;0.60;;
22660;SDS011;11497;52.222;21.246;2022-09-06T12:16:01;1.48;;;0.70;;
22660;SDS011;11497;52.222;21.246;2022-09-06T12:19:13;2.55;;;0.70;;
22660;SDS011;11497;52.222;21.246;2022-09-06T12:27:11;2.38;;;0.77;;
22660;SDS011;11497;52.222;21.246;2022-09-06T12:32:23;0.60;;;0.60;;
22660;SDS011;11497;52.222;21.246;2022-09-06T12:34:54;1.17;;;0.73;;
22660;SDS011;11497;52.222;21.246;2022-09-06T12:37:52;2.00;;;0.70;;
22660;SDS011;11497;52.222;21.246;2022-09-06T12:40:39;2.40;;;0.70;;
22660;SDS011;11497;52.222;21.246;2022-09-06T12:43:12;0.80;;;0.80;;
22660;SDS011;11497;52.222;21.246;2022-09-06T12:45:46;0.73;;;0.70;;
22660;SDS011;11497;52.222;21.246;2022-09-06T12:48:26;0.93;;;0.77;;
22660;SDS011;11497;52.222;21.246;2022-09-06T12:51:17;1.33;;;0.70;;
22660;SDS011;11497;52.222;21.246;2022-09-06T12:53:50;2.75;;;0.80;;
22660;SDS011;11497;52.222;21.246;2022-09-06T12:56:19;3.90;;;0.95;;
22660;SDS011;11497;52.222;21.246;2022-09-06T12:58:49;2.42;;;0.93;;
22660;SDS011;11497;52.222;21.246;2022-09-06T13:01:22;0.70;;;0.70;;
22660;SDS011;11497;52.222;21.246;2022-09-06T13:04:01;2.15;;;0.82;;
22660;SDS011;11497;52.222;21.246;2022-09-06T13:06:37;4.40;;;0.75;;
22660;SDS011;11497;52.222;21.246;2022-09-06T13:09:09;3.72;;;0.85;;
22660;SDS011;11497;52.222;21.246;2022-09-06T13:11:43;1.30;;;0.60;;
22660;SDS011;11497;52.222;21.246;2022-09-06T13:14:22;3.00;;;0.70;;
22660;SDS011;11497;52.222;21.246;2022-09-06T13:16:54;6.57;;;1.00;;
22660;SDS011;11497;52.222;21.246;2022-09-06T13:19:38;1.17;;;0.80;;
22660;SDS011;11497;52.222;21.246;2022-09-06T13:22:08;2.88;;;0.80;;
22660;SDS011;11497;52.222;21.246;2022-09-06T13:24:44;1.38;;;0.68;;
22660;SDS011;11497;52.222;21.246;2022-09-06T13:27:25;2.88;;;0.82;;
22660;SDS011;11497;52.222;21.246;2022-09-06T13:29:57;2.28;;;0.73;;
22660;SDS011;11497;52.222;21.246;2022-09-06T13:32:30;6.82;;;1.00;;
22660;SDS011;11497;52.222;21.246;2022-09-06T13:34:59;2.22;;;0.70;;
22660;SDS011;11497;52.222;21.246;2022-09-06T13:37:29;2.13;;;0.70;;
22660;SDS011;11497;52.222;21.246;2022-09-06T13:39:59;2.83;;;0.80;;
22660;SDS011;11497;52.222;21.246;2022-09-06T13:42:32;1.50;;;0.80;;
22660;SDS011;11497;52.222;21.246;2022-09-06T13:47:50;2.20;;;0.70;;
22660;SDS011;11497;52.222;21.246;2022-09-06T13:50:38;2.85;;;0.80;;
22660;SDS011;11497;52.222;21.246;2022-09-06T13:53:07;3.80;;;0.80;;
22660;SDS011;11497;52.222;21.246;2022-09-06T13:55:36;4.47;;;0.80;;
22660;SDS011;11497;52.222;21.246;2022-09-06T13:58:03;3.28;;;0.60;;
22660;SDS011;11497;52.222;21.246;2022-09-06T14:00:32;3.47;;;0.90;;
22660;SDS011;11497;52.222;21.246;2022-09-06T14:03:00;3.05;;;0.63;;
22660;SDS011;11497;52.222;21.246;2022-09-06T14:05:28;1.83;;;0.68;;
22660;SDS011;11497;52.222;21.246;2022-09-06T14:07:56;2.97;;;0.70;;
22660;SDS011;11497;52.222;21.246;2022-09-06T14:10:24;2.05;;;0.80;;
22660;SDS011;11497;52.222;21.246;2022-09-06T14:12:52;2.25;;;0.60;;
22660;SDS011;11497;52.222;21.246;2022-09-06T14:15:20;4.90;;;0.90;;
22660;SDS011;11497;52.222;21.246;2022-09-06T14:17:48;1.25;;;0.70;;
22660;SDS011;11497;52.222;21.246;2022-09-06T14:20:16;1.60;;;0.93;;
22660;SDS011;11497;52.222;21.246;2022-09-06T14:22:44;2.38;;;1.00;;
22660;SDS011;11497;52.222;21.246;2022-09-06T14:25:13;1.42;;;0.90;;
22660;SDS011;11497;52.222;21.246;2022-09-06T14:27:41;2.35;;;0.70;;
22660;SDS011;11497;52.222;21.246;2022-09-06T14:30:09;2.42;;;0.80;;
22660;SDS011;11497;52.222;21.246;2022-09-06T14:32:37;1.60;;;0.60;;
22660;SDS011;11497;52.222;21.246;2022-09-06T14:35:05;1.88;;;0.60;;
22660;SDS011;11497;52.222;21.246;2022-09-06T14:37:33;2.95;;;0.70;;
22660;SDS011;11497;52.222;21.246;2022-09-06T14:40:02;1.23;;;0.75;;
22660;SDS011;11497;52.222;21.246;2022-09-06T14:42:31;1.13;;;0.70;;
22660;SDS011;11497;52.222;21.246;2022-09-06T14:44:59;0.95;;;0.70;;
22660;SDS011;11497;52.222;21.246;2022-09-06T14:47:27;1.35;;;0.60;;
22660;SDS011;11497;52.222;21.246;2022-09-06T14:49:54;1.75;;;0.85;;
22660;SDS011;11497;52.222;21.246;2022-09-06T14:52:22;1.27;;;0.70;;
22660;SDS011;11497;52.222;21.246;2022-09-06T14:54:50;4.07;;;0.80;;
22660;SDS011;11497;52.222;21.246;2022-09-06T14:57:18;0.60;;;0.60;;
22660;SDS011;11497;52.222;21.246;2022-09-06T14:59:46;3.13;;;0.85;;
22660;SDS011;11497;52.222;21.246;2022-09-06T15:02:14;1.52;;;0.73;;
22660;SDS011;11497;52.222;21.246;2022-09-06T15:04:42;1.42;;;1.00;;
22660;SDS011;11497;52.222;21.246;2022-09-06T15:07:10;3.35;;;1.00;;
22660;SDS011;11497;52.222;21.246;2022-09-06T15:09:38;2.15;;;0.90;;
22660;SDS011;11497;52.222;21.246;2022-09-06T15:12:06;1.85;;;0.70;;
22660;SDS011;11497;52.222;21.246;2022-09-06T15:14:34;3.67;;;0.70;;
22660;SDS011;11497;52.222;21.246;2022-09-06T15:17:02;0.60;;;0.50;;
22660;SDS011;11497;52.222;21.246;2022-09-06T15:19:34;2.08;;;0.60;;
22660;SDS011;11497;52.222;21.246;2022-09-06T15:22:03;5.10;;;0.80;;
22660;SDS011;11497;52.222;21.246;2022-09-06T15:24:32;0.60;;;0.60;;
22660;SDS011;11497;52.222;21.246;2022-09-06T15:27:00;3.45;;;0.77;;
22660;SDS011;11497;52.222;21.246;2022-09-06T15:29:28;2.20;;;0.90;;
22660;SDS011;11497;52.222;21.246;2022-09-06T15:31:56;3.50;;;0.65;;
22660;SDS011;11497;52.222;21.246;2022-09-06T15:34:25;3.25;;;0.68;;
22660;SDS011;11497;52.222;21.246;2022-09-06T15:36:52;0.75;;;0.75;;
22660;SDS011;11497;52.222;21.246;2022-09-06T15:39:22;1.42;;;0.90;;
22660;SDS011;11497;52.222;21.246;2022-09-06T15:41:50;2.47;;;0.70;;
22660;SDS011;11497;52.222;21.246;2022-09-06T15:44:18;2.55;;;0.70;;
22660;SDS011;11497;52.222;21.246;2022-09-06T15:46:56;5.07;;;0.73;;
22660;SDS011;11497;52.222;21.246;2022-09-06T15:49:26;5.72;;;0.80;;
22660;SDS011;11497;52.222;21.246;2022-09-06T15:51:58;3.90;;;1.00;;
22660;SDS011;11497;52.222;21.246;2022-09-06T15:54:27;1.90;;;0.90;;
22660;SDS011;11497;52.222;21.246;2022-09-06T15:57:14;5.78;;;1.42;;
22660;SDS011;11497;52.222;21.246;2022-09-06T15:59:43;3.35;;;1.05;;
22660;SDS011;11497;52.222;21.246;2022-09-06T16:02:11;3.75;;;1.00;;
22660;SDS011;11497;52.222;21.246;2022-09-06T16:04:40;6.32;;;1.38;;
22660;SDS011;11497;52.222;21.246;2022-09-06T16:07:08;3.92;;;1.33;;
22660;SDS011;11497;52.222;21.246;2022-09-06T16:09:37;2.38;;;1.10;;
22660;SDS011;11497;52.222;21.246;2022-09-06T16:12:05;2.58;;;1.10;;
22660;SDS011;11497;52.222;21.246;2022-09-06T16:14:35;3.60;;;1.20;;
22660;SDS011;11497;52.222;21.246;2022-09-06T16:17:03;3.40;;;1.00;;
22660;SDS011;11497;52.222;21.246;2022-09-06T16:19:31;6.38;;;0.80;;
22660;SDS011;11497;52.222;21.246;2022-09-06T16:21:59;5.32;;;0.90;;
22660;SDS011;11497;52.222;21.246;2022-09-06T16:24:28;3.05;;;0.90;;
22660;SDS011;11497;52.222;21.246;2022-09-06T16:26:55;2.95;;;1.05;;
22660;SDS011;11497;52.222;21.246;2022-09-06T16:29:24;2.30;;;1.33;;
22660;SDS011;11497;52.222;21.246;2022-09-06T16:31:52;2.78;;;1.40;;
22660;SDS011;11497;52.222;21.246;2022-09-06T16:34:25;3.10;;;1.40;;
22660;SDS011;11497;52.222;21.246;2022-09-06T16:36:53;2.30;;;1.30;;
22660;SDS011;11497;52.222;21.246;2022-09-06T16:39:22;10.32;;;1.65;;
22660;SDS011;11497;52.222;21.246;2022-09-06T16:41:50;9.95;;;2.00;;
22660;SDS011;11497;52.222;21.246;2022-09-06T16:44:18;3.65;;;1.50;;
22660;SDS011;11497;52.222;21.246;2022-09-06T16:46:47;5.20;;;1.50;;
22660;SDS011;11497;52.222;21.246;2022-09-06T16:49:16;3.30;;;1.48;;
22660;SDS011;11497;52.222;21.246;2022-09-06T16:51:45;6.15;;;1.55;;
22660;SDS011;11497;52.222;21.246;2022-09-06T16:54:14;5.32;;;1.65;;
22660;SDS011;11497;52.222;21.246;2022-09-06T16:56:43;4.68;;;1.50;;
22660;SDS011;11497;52.222;21.246;2022-09-06T16:59:11;4.95;;;1.48;;
22660;SDS011;11497;52.222;21.246;2022-09-06T17:01:43;7.40;;;1.80;;
22660;SDS011;11497;52.222;21.246;2022-09-06T17:04:12;4.00;;;1.80;;
22660;SDS011;11497;52.222;21.246;2022-09-06T17:06:40;5.78;;;1.60;;